sensor_id;sensor_type;location;lat;lon;timestamp;P1;durP1;ratioP1;P2;durP2;ratioP2
35312;SDS011;21425;50.454;30.466;2023-05-31T00:00:07;5.60;;;3.45;;
35312;SDS011;21425;50.454;30.466;2023-05-31T00:02:33;7.90;;;3.53;;
35312;SDS011;21425;50.454;30.466;2023-05-31T00:04:58;7.90;;;3.60;;
35312;SDS011;21425;50.454;30.466;2023-05-31T00:07:24;9.95;;;3.33;;
35312;SDS011;21425;50.454;30.466;2023-05-31T00:09:50;5.57;;;3.35;;
35312;SDS011;21425;50.454;30.466;2023-05-31T00:12:15;11.10;;;3.88;;
35312;SDS011;21425;50.454;30.466;2023-05-31T00:14:41;6.97;;;3.30;;
35312;SDS011;21425;50.454;30.466;2023-05-31T00:17:06;11.27;;;4.28;;
35312;SDS011;21425;50.454;30.466;2023-05-31T00:19:32;7.43;;;3.78;;
35312;SDS011;21425;50.454;30.466;2023-05-31T00:21:57;11.13;;;4.20;;
35312;SDS011;21425;50.454;30.466;2023-05-31T00:24:23;9.43;;;4.80;;
35312;SDS011;21425;50.454;30.466;2023-05-31T00:26:49;9.73;;;5.43;;
35312;SDS011;21425;50.454;30.466;2023-05-31T00:29:15;7.78;;;4.50;;
35312;SDS011;21425;50.454;30.466;2023-05-31T00:31:41;6.40;;;4.28;;
35312;SDS011;21425;50.454;30.466;2023-05-31T00:34:07;10.70;;;4.93;;
35312;SDS011;21425;50.454;30.466;2023-05-31T00:36:35;8.25;;;4.38;;
35312;SDS011;21425;50.454;30.466;2023-05-31T00:39:01;8.30;;;5.00;;
35312;SDS011;21425;50.454;30.466;2023-05-31T00:41:27;7.72;;;4.78;;
35312;SDS011;21425;50.454;30.466;2023-05-31T00:43:53;12.23;;;4.80;;
35312;SDS011;21425;50.454;30.466;2023-05-31T00:48:51;10.93;;;4.95;;
35312;SDS011;21425;50.454;30.466;2023-05-31T00:51:18;7.63;;;4.50;;
35312;SDS011;21425;50.454;30.466;2023-05-31T00:53:44;8.20;;;4.60;;
35312;SDS011;21425;50.454;30.466;2023-05-31T00:56:10;8.35;;;4.97;;
35312;SDS011;21425;50.454;30.466;2023-05-31T00:58:37;9.18;;;5.03;;
35312;SDS011;21425;50.454;30.466;2023-05-31T01:01:03;9.85;;;5.43;;
35312;SDS011;21425;50.454;30.466;2023-05-31T01:03:30;7.00;;;4.65;;
35312;SDS011;21425;50.454;30.466;2023-05-31T01:05:56;10.10;;;5.65;;
35312;SDS011;21425;50.454;30.466;2023-05-31T01:08:22;9.77;;;4.63;;
35312;SDS011;21425;50.454;30.466;2023-05-31T01:10:48;10.82;;;5.45;;
35312;SDS011;21425;50.454;30.466;2023-05-31T01:16:06;9.52;;;5.10;;
35312;SDS011;21425;50.454;30.466;2023-05-31T01:18:47;12.73;;;5.53;;
35312;SDS011;21425;50.454;30.466;2023-05-31T01:21:19;9.95;;;5.50;;
35312;SDS011;21425;50.454;30.466;2023-05-31T01:26:47;11.85;;;5.85;;
35312;SDS011;21425;50.454;30.466;2023-05-31T01:29:18;13.30;;;7.47;;
35312;SDS011;21425;50.454;30.466;2023-05-31T01:31:44;14.20;;;7.53;;
35312;SDS011;21425;50.454;30.466;2023-05-31T01:34:11;16.90;;;8.48;;
35312;SDS011;21425;50.454;30.466;2023-05-31T01:36:37;18.42;;;9.77;;
35312;SDS011;21425;50.454;30.466;2023-05-31T01:39:03;23.08;;;12.43;;
35312;SDS011;21425;50.454;30.466;2023-05-31T01:41:29;30.50;;;16.00;;
35312;SDS011;21425;50.454;30.466;2023-05-31T01:46:30;37.83;;;17.42;;
35312;SDS011;21425;50.454;30.466;2023-05-31T01:48:55;32.60;;;14.75;;
35312;SDS011;21425;50.454;30.466;2023-05-31T01:51:22;30.13;;;15.00;;
35312;SDS011;21425;50.454;30.466;2023-05-31T01:53:49;29.25;;;14.95;;
35312;SDS011;21425;50.454;30.466;2023-05-31T01:56:15;29.55;;;14.18;;
35312;SDS011;21425;50.454;30.466;2023-05-31T01:58:44;26.60;;;13.60;;
35312;SDS011;21425;50.454;30.466;2023-05-31T02:01:12;27.63;;;13.13;;
35312;SDS011;21425;50.454;30.466;2023-05-31T02:03:39;25.30;;;13.20;;
35312;SDS011;21425;50.454;30.466;2023-05-31T02:06:05;27.98;;;12.65;;
35312;SDS011;21425;50.454;30.466;2023-05-31T02:08:30;26.00;;;12.70;;
35312;SDS011;21425;50.454;30.466;2023-05-31T02:10:56;22.40;;;11.63;;
35312;SDS011;21425;50.454;30.466;2023-05-31T02:13:26;24.33;;;12.75;;
35312;SDS011;21425;50.454;30.466;2023-05-31T02:15:52;21.83;;;12.27;;
35312;SDS011;21425;50.454;30.466;2023-05-31T02:18:19;24.27;;;11.75;;
35312;SDS011;21425;50.454;30.466;2023-05-31T02:20:46;20.90;;;11.57;;
35312;SDS011;21425;50.454;30.466;2023-05-31T02:23:12;27.23;;;11.93;;
35312;SDS011;21425;50.454;30.466;2023-05-31T02:25:38;21.00;;;11.95;;
35312;SDS011;21425;50.454;30.466;2023-05-31T02:28:04;21.77;;;11.63;;
35312;SDS011;21425;50.454;30.466;2023-05-31T02:30:30;22.00;;;11.80;;
35312;SDS011;21425;50.454;30.466;2023-05-31T02:32:56;24.33;;;11.23;;
35312;SDS011;21425;50.454;30.466;2023-05-31T02:35:25;22.67;;;11.85;;
35312;SDS011;21425;50.454;30.466;2023-05-31T02:37:51;26.98;;;12.05;;
35312;SDS011;21425;50.454;30.466;2023-05-31T02:40:17;24.95;;;11.30;;
35312;SDS011;21425;50.454;30.466;2023-05-31T02:42:43;19.63;;;11.65;;
35312;SDS011;21425;50.454;30.466;2023-05-31T02:45:09;23.17;;;11.32;;
35312;SDS011;21425;50.454;30.466;2023-05-31T02:47:36;18.15;;;10.18;;
35312;SDS011;21425;50.454;30.466;2023-05-31T02:50:03;20.95;;;10.77;;
35312;SDS011;21425;50.454;30.466;2023-05-31T02:52:30;16.73;;;10.02;;
35312;SDS011;21425;50.454;30.466;2023-05-31T02:54:56;17.35;;;10.27;;
35312;SDS011;21425;50.454;30.466;2023-05-31T02:57:22;17.45;;;10.00;;
35312;SDS011;21425;50.454;30.466;2023-05-31T02:59:48;17.38;;;9.60;;
35312;SDS011;21425;50.454;30.466;2023-05-31T03:02:15;19.15;;;10.10;;
35312;SDS011;21425;50.454;30.466;2023-05-31T03:04:41;17.48;;;8.77;;
35312;SDS011;21425;50.454;30.466;2023-05-31T03:07:07;16.10;;;8.93;;
35312;SDS011;21425;50.454;30.466;2023-05-31T03:09:33;16.23;;;8.80;;
35312;SDS011;21425;50.454;30.466;2023-05-31T03:11:59;13.50;;;8.02;;
35312;SDS011;21425;50.454;30.466;2023-05-31T03:14:25;17.33;;;8.48;;
35312;SDS011;21425;50.454;30.466;2023-05-31T03:16:51;13.50;;;7.93;;
35312;SDS011;21425;50.454;30.466;2023-05-31T03:19:17;16.67;;;8.35;;
35312;SDS011;21425;50.454;30.466;2023-05-31T03:21:43;16.50;;;7.65;;
35312;SDS011;21425;50.454;30.466;2023-05-31T03:24:09;15.23;;;6.70;;
35312;SDS011;21425;50.454;30.466;2023-05-31T03:26:34;11.95;;;7.03;;
35312;SDS011;21425;50.454;30.466;2023-05-31T03:29:00;14.63;;;7.32;;
35312;SDS011;21425;50.454;30.466;2023-05-31T03:31:26;15.32;;;5.88;;
35312;SDS011;21425;50.454;30.466;2023-05-31T03:33:54;12.95;;;5.63;;
35312;SDS011;21425;50.454;30.466;2023-05-31T03:36:20;10.68;;;6.05;;
35312;SDS011;21425;50.454;30.466;2023-05-31T03:38:46;11.43;;;5.13;;
35312;SDS011;21425;50.454;30.466;2023-05-31T03:41:12;10.10;;;4.82;;
35312;SDS011;21425;50.454;30.466;2023-05-31T03:43:38;11.95;;;4.53;;
35312;SDS011;21425;50.454;30.466;2023-05-31T03:46:04;9.38;;;4.18;;
35312;SDS011;21425;50.454;30.466;2023-05-31T03:48:30;13.77;;;5.20;;
35312;SDS011;21425;50.454;30.466;2023-05-31T03:50:56;15.60;;;4.30;;
35312;SDS011;21425;50.454;30.466;2023-05-31T03:53:22;7.82;;;4.05;;
35312;SDS011;21425;50.454;30.466;2023-05-31T03:55:48;9.80;;;3.53;;
35312;SDS011;21425;50.454;30.466;2023-05-31T03:58:14;9.77;;;3.72;;
35312;SDS011;21425;50.454;30.466;2023-05-31T04:00:40;5.45;;;3.85;;
35312;SDS011;21425;50.454;30.466;2023-05-31T04:03:06;9.25;;;3.28;;
35312;SDS011;21425;50.454;30.466;2023-05-31T04:05:32;8.45;;;4.25;;
35312;SDS011;21425;50.454;30.466;2023-05-31T04:07:58;9.02;;;4.07;;
35312;SDS011;21425;50.454;30.466;2023-05-31T04:10:26;14.32;;;3.97;;
35312;SDS011;21425;50.454;30.466;2023-05-31T04:12:52;9.73;;;3.58;;
35312;SDS011;21425;50.454;30.466;2023-05-31T04:15:18;8.20;;;3.03;;
35312;SDS011;21425;50.454;30.466;2023-05-31T04:17:44;8.23;;;3.60;;
35312;SDS011;21425;50.454;30.466;2023-05-31T04:20:11;6.85;;;3.05;;
35312;SDS011;21425;50.454;30.466;2023-05-31T04:22:37;7.80;;;3.50;;
35312;SDS011;21425;50.454;30.466;2023-05-31T04:25:03;10.30;;;3.88;;
35312;SDS011;21425;50.454;30.466;2023-05-31T04:27:30;6.13;;;2.90;;
35312;SDS011;21425;50.454;30.466;2023-05-31T04:29:57;10.13;;;3.30;;
35312;SDS011;21425;50.454;30.466;2023-05-31T04:32:24;9.23;;;3.03;;
35312;SDS011;21425;50.454;30.466;2023-05-31T04:34:49;7.60;;;2.90;;
35312;SDS011;21425;50.454;30.466;2023-05-31T04:37:22;6.77;;;3.23;;
35312;SDS011;21425;50.454;30.466;2023-05-31T04:39:48;7.35;;;3.35;;
35312;SDS011;21425;50.454;30.466;2023-05-31T04:42:14;6.60;;;3.45;;
35312;SDS011;21425;50.454;30.466;2023-05-31T04:44:40;7.25;;;2.78;;
35312;SDS011;21425;50.454;30.466;2023-05-31T04:47:05;7.97;;;3.20;;
35312;SDS011;21425;50.454;30.466;2023-05-31T04:49:31;8.48;;;3.10;;
35312;SDS011;21425;50.454;30.466;2023-05-31T04:51:57;8.85;;;2.97;;
35312;SDS011;21425;50.454;30.466;2023-05-31T04:54:24;5.55;;;3.10;;
35312;SDS011;21425;50.454;30.466;2023-05-31T04:56:50;8.13;;;3.30;;
35312;SDS011;21425;50.454;30.466;2023-05-31T04:59:15;4.65;;;3.20;;
35312;SDS011;21425;50.454;30.466;2023-05-31T05:01:41;5.82;;;3.22;;
35312;SDS011;21425;50.454;30.466;2023-05-31T05:04:07;5.55;;;3.28;;
35312;SDS011;21425;50.454;30.466;2023-05-31T05:06:33;7.70;;;3.30;;
35312;SDS011;21425;50.454;30.466;2023-05-31T05:09:02;4.88;;;2.90;;
35312;SDS011;21425;50.454;30.466;2023-05-31T05:11:28;8.95;;;3.13;;
35312;SDS011;21425;50.454;30.466;2023-05-31T05:13:54;5.53;;;3.00;;
35312;SDS011;21425;50.454;30.466;2023-05-31T05:16:20;9.02;;;2.42;;
35312;SDS011;21425;50.454;30.466;2023-05-31T05:18:46;9.25;;;3.40;;
35312;SDS011;21425;50.454;30.466;2023-05-31T05:21:13;6.93;;;3.17;;
35312;SDS011;21425;50.454;30.466;2023-05-31T05:23:38;9.65;;;3.22;;
35312;SDS011;21425;50.454;30.466;2023-05-31T05:26:06;5.72;;;3.17;;
35312;SDS011;21425;50.454;30.466;2023-05-31T05:28:32;8.85;;;3.45;;
35312;SDS011;21425;50.454;30.466;2023-05-31T05:30:57;5.60;;;2.72;;
35312;SDS011;21425;50.454;30.466;2023-05-31T05:33:23;9.73;;;3.25;;
35312;SDS011;21425;50.454;30.466;2023-05-31T05:35:50;7.55;;;2.67;;
35312;SDS011;21425;50.454;30.466;2023-05-31T05:38:15;8.90;;;2.72;;
35312;SDS011;21425;50.454;30.466;2023-05-31T05:40:42;11.00;;;3.08;;
35312;SDS011;21425;50.454;30.466;2023-05-31T05:43:07;5.20;;;2.83;;
35312;SDS011;21425;50.454;30.466;2023-05-31T05:45:33;5.97;;;3.35;;
35312;SDS011;21425;50.454;30.466;2023-05-31T05:47:59;10.77;;;3.10;;
35312;SDS011;21425;50.454;30.466;2023-05-31T05:50:25;7.40;;;3.10;;
35312;SDS011;21425;50.454;30.466;2023-05-31T05:52:51;6.15;;;3.13;;
35312;SDS011;21425;50.454;30.466;2023-05-31T05:55:17;7.28;;;2.97;;
35312;SDS011;21425;50.454;30.466;2023-05-31T05:57:45;14.82;;;2.83;;
35312;SDS011;21425;50.454;30.466;2023-05-31T06:00:11;7.78;;;3.53;;
35312;SDS011;21425;50.454;30.466;2023-05-31T06:02:39;8.38;;;3.25;;
35312;SDS011;21425;50.454;30.466;2023-05-31T06:05:05;7.80;;;3.35;;
35312;SDS011;21425;50.454;30.466;2023-05-31T06:07:31;11.60;;;2.97;;
35312;SDS011;21425;50.454;30.466;2023-05-31T06:09:57;8.48;;;2.78;;
35312;SDS011;21425;50.454;30.466;2023-05-31T06:12:24;9.95;;;2.90;;
35312;SDS011;21425;50.454;30.466;2023-05-31T06:14:50;11.77;;;2.90;;
35312;SDS011;21425;50.454;30.466;2023-05-31T06:17:16;13.73;;;3.17;;
35312;SDS011;21425;50.454;30.466;2023-05-31T06:19:42;8.15;;;3.03;;
35312;SDS011;21425;50.454;30.466;2023-05-31T06:22:08;8.05;;;2.80;;
35312;SDS011;21425;50.454;30.466;2023-05-31T06:24:34;5.55;;;2.78;;
35312;SDS011;21425;50.454;30.466;2023-05-31T06:27:00;5.72;;;2.53;;
35312;SDS011;21425;50.454;30.466;2023-05-31T06:29:27;6.88;;;2.47;;
35312;SDS011;21425;50.454;30.466;2023-05-31T06:31:53;3.83;;;2.63;;
35312;SDS011;21425;50.454;30.466;2023-05-31T06:34:20;6.95;;;3.60;;
35312;SDS011;21425;50.454;30.466;2023-05-31T06:36:47;6.55;;;2.92;;
35312;SDS011;21425;50.454;30.466;2023-05-31T06:39:12;5.35;;;2.60;;
35312;SDS011;21425;50.454;30.466;2023-05-31T06:41:38;4.93;;;2.15;;
35312;SDS011;21425;50.454;30.466;2023-05-31T06:44:04;5.53;;;2.70;;
35312;SDS011;21425;50.454;30.466;2023-05-31T06:46:30;4.30;;;2.47;;
35312;SDS011;21425;50.454;30.466;2023-05-31T06:48:56;6.35;;;2.65;;
35312;SDS011;21425;50.454;30.466;2023-05-31T06:51:22;10.40;;;2.65;;
35312;SDS011;21425;50.454;30.466;2023-05-31T06:53:49;5.20;;;2.40;;
35312;SDS011;21425;50.454;30.466;2023-05-31T06:56:15;5.38;;;3.00;;
35312;SDS011;21425;50.454;30.466;2023-05-31T06:58:41;13.52;;;2.92;;
35312;SDS011;21425;50.454;30.466;2023-05-31T07:01:07;9.68;;;3.75;;
35312;SDS011;21425;50.454;30.466;2023-05-31T07:03:33;6.63;;;3.20;;
35312;SDS011;21425;50.454;30.466;2023-05-31T07:05:59;5.28;;;3.08;;
35312;SDS011;21425;50.454;30.466;2023-05-31T07:08:25;6.88;;;2.92;;
35312;SDS011;21425;50.454;30.466;2023-05-31T07:10:51;6.80;;;3.20;;
35312;SDS011;21425;50.454;30.466;2023-05-31T07:13:18;5.85;;;3.00;;
35312;SDS011;21425;50.454;30.466;2023-05-31T07:15:44;11.70;;;4.20;;
35312;SDS011;21425;50.454;30.466;2023-05-31T07:18:09;7.18;;;2.83;;
35312;SDS011;21425;50.454;30.466;2023-05-31T07:20:35;8.65;;;2.95;;
35312;SDS011;21425;50.454;30.466;2023-05-31T07:23:01;6.63;;;3.10;;
35312;SDS011;21425;50.454;30.466;2023-05-31T07:25:27;5.22;;;3.05;;
35312;SDS011;21425;50.454;30.466;2023-05-31T07:27:53;7.70;;;2.97;;
35312;SDS011;21425;50.454;30.466;2023-05-31T07:30:19;7.55;;;2.88;;
35312;SDS011;21425;50.454;30.466;2023-05-31T07:32:45;7.82;;;3.13;;
35312;SDS011;21425;50.454;30.466;2023-05-31T07:35:11;7.45;;;3.15;;
35312;SDS011;21425;50.454;30.466;2023-05-31T07:37:37;6.20;;;2.90;;
35312;SDS011;21425;50.454;30.466;2023-05-31T07:40:03;9.07;;;3.00;;
35312;SDS011;21425;50.454;30.466;2023-05-31T07:42:31;9.10;;;3.15;;
35312;SDS011;21425;50.454;30.466;2023-05-31T07:44:58;6.18;;;3.05;;
35312;SDS011;21425;50.454;30.466;2023-05-31T07:47:23;5.30;;;2.60;;
35312;SDS011;21425;50.454;30.466;2023-05-31T07:49:50;6.95;;;2.70;;
35312;SDS011;21425;50.454;30.466;2023-05-31T07:52:16;7.63;;;2.83;;
35312;SDS011;21425;50.454;30.466;2023-05-31T07:54:46;8.82;;;2.90;;
35312;SDS011;21425;50.454;30.466;2023-05-31T07:57:12;10.25;;;3.03;;
35312;SDS011;21425;50.454;30.466;2023-05-31T07:59:38;5.43;;;2.67;;
35312;SDS011;21425;50.454;30.466;2023-05-31T08:02:05;5.53;;;2.58;;
35312;SDS011;21425;50.454;30.466;2023-05-31T08:04:30;8.98;;;2.63;;
35312;SDS011;21425;50.454;30.466;2023-05-31T08:06:56;6.68;;;2.92;;
35312;SDS011;21425;50.454;30.466;2023-05-31T08:09:22;5.55;;;2.70;;
35312;SDS011;21425;50.454;30.466;2023-05-31T08:11:48;9.65;;;2.47;;
35312;SDS011;21425;50.454;30.466;2023-05-31T08:14:14;3.83;;;2.25;;
35312;SDS011;21425;50.454;30.466;2023-05-31T08:16:40;4.30;;;2.53;;
35312;SDS011;21425;50.454;30.466;2023-05-31T08:19:06;7.45;;;2.67;;
35312;SDS011;21425;50.454;30.466;2023-05-31T08:21:32;7.93;;;2.88;;
35312;SDS011;21425;50.454;30.466;2023-05-31T08:24:01;4.65;;;2.15;;
35312;SDS011;21425;50.454;30.466;2023-05-31T08:26:27;7.65;;;2.25;;
35312;SDS011;21425;50.454;30.466;2023-05-31T08:28:53;6.65;;;2.13;;
35312;SDS011;21425;50.454;30.466;2023-05-31T08:31:19;7.10;;;1.90;;
35312;SDS011;21425;50.454;30.466;2023-05-31T08:33:53;5.00;;;2.03;;
35312;SDS011;21425;50.454;30.466;2023-05-31T08:36:20;8.50;;;2.08;;
35312;SDS011;21425;50.454;30.466;2023-05-31T08:38:46;10.73;;;2.10;;
35312;SDS011;21425;50.454;30.466;2023-05-31T08:41:12;6.30;;;1.63;;
35312;SDS011;21425;50.454;30.466;2023-05-31T08:43:39;3.20;;;1.83;;
35312;SDS011;21425;50.454;30.466;2023-05-31T08:46:05;7.18;;;2.10;;
35312;SDS011;21425;50.454;30.466;2023-05-31T08:48:35;6.97;;;1.90;;
35312;SDS011;21425;50.454;30.466;2023-05-31T08:51:07;2.63;;;1.20;;
35312;SDS011;21425;50.454;30.466;2023-05-31T08:53:34;6.57;;;1.92;;
35312;SDS011;21425;50.454;30.466;2023-05-31T08:56:00;5.20;;;1.42;;
35312;SDS011;21425;50.454;30.466;2023-05-31T08:58:27;5.97;;;1.50;;
35312;SDS011;21425;50.454;30.466;2023-05-31T09:00:54;8.13;;;2.08;;
35312;SDS011;21425;50.454;30.466;2023-05-31T09:03:21;9.68;;;1.63;;
35312;SDS011;21425;50.454;30.466;2023-05-31T09:05:47;10.75;;;1.70;;
35312;SDS011;21425;50.454;30.466;2023-05-31T09:08:13;5.03;;;1.90;;
35312;SDS011;21425;50.454;30.466;2023-05-31T09:10:39;4.43;;;1.70;;
35312;SDS011;21425;50.454;30.466;2023-05-31T09:13:05;4.30;;;1.60;;
35312;SDS011;21425;50.454;30.466;2023-05-31T09:15:32;3.45;;;1.75;;
35312;SDS011;21425;50.454;30.466;2023-05-31T09:18:14;3.50;;;1.70;;
35312;SDS011;21425;50.454;30.466;2023-05-31T09:20:40;5.38;;;1.80;;
35312;SDS011;21425;50.454;30.466;2023-05-31T09:23:07;4.35;;;1.60;;
35312;SDS011;21425;50.454;30.466;2023-05-31T09:25:47;3.15;;;1.42;;
35312;SDS011;21425;50.454;30.466;2023-05-31T09:28:13;3.42;;;1.67;;
35312;SDS011;21425;50.454;30.466;2023-05-31T09:30:40;7.68;;;1.50;;
35312;SDS011;21425;50.454;30.466;2023-05-31T09:33:07;9.48;;;2.00;;
35312;SDS011;21425;50.454;30.466;2023-05-31T09:35:33;15.32;;;2.15;;
35312;SDS011;21425;50.454;30.466;2023-05-31T09:38:05;6.85;;;2.00;;
35312;SDS011;21425;50.454;30.466;2023-05-31T09:40:31;4.75;;;1.80;;
35312;SDS011;21425;50.454;30.466;2023-05-31T09:42:58;2.78;;;1.60;;
35312;SDS011;21425;50.454;30.466;2023-05-31T09:45:24;2.63;;;1.50;;
35312;SDS011;21425;50.454;30.466;2023-05-31T09:47:50;7.10;;;1.52;;
35312;SDS011;21425;50.454;30.466;2023-05-31T09:50:18;5.88;;;2.40;;
35312;SDS011;21425;50.454;30.466;2023-05-31T09:52:45;5.15;;;1.67;;
35312;SDS011;21425;50.454;30.466;2023-05-31T09:55:12;3.03;;;1.55;;
35312;SDS011;21425;50.454;30.466;2023-05-31T09:57:38;3.67;;;1.48;;
35312;SDS011;21425;50.454;30.466;2023-05-31T10:00:12;2.40;;;1.55;;
35312;SDS011;21425;50.454;30.466;2023-05-31T10:02:46;4.13;;;1.50;;
35312;SDS011;21425;50.454;30.466;2023-05-31T10:05:14;7.85;;;1.73;;
35312;SDS011;21425;50.454;30.466;2023-05-31T10:07:41;3.17;;;1.50;;
35312;SDS011;21425;50.454;30.466;2023-05-31T10:10:08;3.72;;;1.40;;
35312;SDS011;21425;50.454;30.466;2023-05-31T10:12:57;4.45;;;1.70;;
35312;SDS011;21425;50.454;30.466;2023-05-31T10:15:21;6.15;;;1.60;;
35312;SDS011;21425;50.454;30.466;2023-05-31T10:17:50;7.45;;;1.92;;
35312;SDS011;21425;50.454;30.466;2023-05-31T10:20:18;2.70;;;1.50;;
35312;SDS011;21425;50.454;30.466;2023-05-31T10:22:44;4.43;;;1.70;;
35312;SDS011;21425;50.454;30.466;2023-05-31T10:28:07;3.00;;;1.38;;
35312;SDS011;21425;50.454;30.466;2023-05-31T10:30:37;4.45;;;1.40;;
35312;SDS011;21425;50.454;30.466;2023-05-31T10:33:09;3.25;;;1.52;;
35312;SDS011;21425;50.454;30.466;2023-05-31T10:35:36;3.03;;;1.50;;
35312;SDS011;21425;50.454;30.466;2023-05-31T10:38:02;5.18;;;1.90;;
35312;SDS011;21425;50.454;30.466;2023-05-31T10:43:14;5.07;;;1.50;;
35312;SDS011;21425;50.454;30.466;2023-05-31T10:45:56;7.57;;;1.63;;
35312;SDS011;21425;50.454;30.466;2023-05-31T10:48:45;4.22;;;1.52;;
35312;SDS011;21425;50.454;30.466;2023-05-31T10:51:12;3.90;;;1.48;;
35312;SDS011;21425;50.454;30.466;2023-05-31T10:53:41;2.35;;;1.30;;
35312;SDS011;21425;50.454;30.466;2023-05-31T10:56:11;3.70;;;1.75;;
35312;SDS011;21425;50.454;30.466;2023-05-31T10:58:42;3.20;;;1.58;;
35312;SDS011;21425;50.454;30.466;2023-05-31T11:01:12;1.98;;;0.93;;
35312;SDS011;21425;50.454;30.466;2023-05-31T11:03:48;3.08;;;1.30;;
35312;SDS011;21425;50.454;30.466;2023-05-31T11:06:16;2.70;;;1.40;;
35312;SDS011;21425;50.454;30.466;2023-05-31T11:08:58;4.57;;;1.27;;
35312;SDS011;21425;50.454;30.466;2023-05-31T11:11:28;2.83;;;1.17;;
35312;SDS011;21425;50.454;30.466;2023-05-31T11:19:13;2.15;;;1.33;;
35312;SDS011;21425;50.454;30.466;2023-05-31T11:27:15;2.10;;;0.93;;
35312;SDS011;21425;50.454;30.466;2023-05-31T11:32:14;4.00;;;1.30;;
35312;SDS011;21425;50.454;30.466;2023-05-31T11:34:50;2.70;;;1.38;;
35312;SDS011;21425;50.454;30.466;2023-05-31T11:37:18;4.20;;;1.35;;
35312;SDS011;21425;50.454;30.466;2023-05-31T11:39:46;2.83;;;1.30;;
35312;SDS011;21425;50.454;30.466;2023-05-31T11:42:12;3.92;;;1.35;;
35312;SDS011;21425;50.454;30.466;2023-05-31T11:44:43;2.40;;;0.95;;
35312;SDS011;21425;50.454;30.466;2023-05-31T11:47:27;3.28;;;1.23;;
35312;SDS011;21425;50.454;30.466;2023-05-31T11:49:56;3.63;;;1.17;;
35312;SDS011;21425;50.454;30.466;2023-05-31T11:52:22;3.45;;;1.25;;
35312;SDS011;21425;50.454;30.466;2023-05-31T11:54:48;4.20;;;1.02;;
35312;SDS011;21425;50.454;30.466;2023-05-31T11:57:16;2.45;;;1.10;;
35312;SDS011;21425;50.454;30.466;2023-05-31T11:59:42;4.65;;;1.23;;
35312;SDS011;21425;50.454;30.466;2023-05-31T12:02:08;2.50;;;1.27;;
35312;SDS011;21425;50.454;30.466;2023-05-31T12:04:36;3.90;;;1.45;;
35312;SDS011;21425;50.454;30.466;2023-05-31T12:07:04;2.45;;;1.10;;
35312;SDS011;21425;50.454;30.466;2023-05-31T12:09:32;5.78;;;1.10;;
35312;SDS011;21425;50.454;30.466;2023-05-31T12:11:58;3.22;;;1.30;;
35312;SDS011;21425;50.454;30.466;2023-05-31T12:14:25;4.93;;;1.75;;
35312;SDS011;21425;50.454;30.466;2023-05-31T12:16:53;2.10;;;1.42;;
35312;SDS011;21425;50.454;30.466;2023-05-31T12:19:19;3.85;;;1.30;;
35312;SDS011;21425;50.454;30.466;2023-05-31T12:21:45;2.83;;;1.30;;
35312;SDS011;21425;50.454;30.466;2023-05-31T12:24:12;2.40;;;1.38;;
35312;SDS011;21425;50.454;30.466;2023-05-31T12:26:38;3.33;;;1.20;;
35312;SDS011;21425;50.454;30.466;2023-05-31T12:29:05;6.15;;;1.30;;
35312;SDS011;21425;50.454;30.466;2023-05-31T12:31:33;3.15;;;0.98;;
35312;SDS011;21425;50.454;30.466;2023-05-31T12:34:06;2.65;;;1.30;;
35312;SDS011;21425;50.454;30.466;2023-05-31T12:36:43;2.70;;;1.40;;
35312;SDS011;21425;50.454;30.466;2023-05-31T12:39:11;2.92;;;0.95;;
35312;SDS011;21425;50.454;30.466;2023-05-31T12:41:37;3.33;;;1.15;;
35312;SDS011;21425;50.454;30.466;2023-05-31T12:44:05;6.22;;;1.48;;
35312;SDS011;21425;50.454;30.466;2023-05-31T12:46:38;7.47;;;1.75;;
35312;SDS011;21425;50.454;30.466;2023-05-31T12:49:12;3.78;;;1.80;;
35312;SDS011;21425;50.454;30.466;2023-05-31T12:51:46;4.85;;;1.58;;
35312;SDS011;21425;50.454;30.466;2023-05-31T12:54:13;3.20;;;1.50;;
35312;SDS011;21425;50.454;30.466;2023-05-31T12:56:39;4.97;;;1.48;;
35312;SDS011;21425;50.454;30.466;2023-05-31T12:59:05;4.68;;;1.70;;
35312;SDS011;21425;50.454;30.466;2023-05-31T13:01:31;5.35;;;2.08;;
35312;SDS011;21425;50.454;30.466;2023-05-31T13:03:58;3.83;;;1.00;;
35312;SDS011;21425;50.454;30.466;2023-05-31T13:06:25;2.53;;;1.40;;
35312;SDS011;21425;50.454;30.466;2023-05-31T13:08:51;3.75;;;1.10;;
35312;SDS011;21425;50.454;30.466;2023-05-31T13:11:17;2.25;;;1.30;;
35312;SDS011;21425;50.454;30.466;2023-05-31T13:13:42;2.10;;;1.10;;
35312;SDS011;21425;50.454;30.466;2023-05-31T13:16:08;4.63;;;1.10;;
35312;SDS011;21425;50.454;30.466;2023-05-31T13:18:35;3.60;;;1.08;;
35312;SDS011;21425;50.454;30.466;2023-05-31T13:21:01;2.63;;;1.10;;
35312;SDS011;21425;50.454;30.466;2023-05-31T13:23:27;3.47;;;1.00;;
35312;SDS011;21425;50.454;30.466;2023-05-31T13:25:53;8.00;;;1.52;;
35312;SDS011;21425;50.454;30.466;2023-05-31T13:28:19;3.60;;;1.33;;
35312;SDS011;21425;50.454;30.466;2023-05-31T13:30:49;5.13;;;1.58;;
35312;SDS011;21425;50.454;30.466;2023-05-31T13:33:15;1.67;;;1.17;;
35312;SDS011;21425;50.454;30.466;2023-05-31T13:35:41;5.95;;;1.05;;
35312;SDS011;21425;50.454;30.466;2023-05-31T13:38:08;2.55;;;1.20;;
35312;SDS011;21425;50.454;30.466;2023-05-31T13:40:34;2.10;;;1.10;;
35312;SDS011;21425;50.454;30.466;2023-05-31T13:43:02;4.32;;;1.08;;
35312;SDS011;21425;50.454;30.466;2023-05-31T13:45:29;2.95;;;1.40;;
35312;SDS011;21425;50.454;30.466;2023-05-31T13:47:55;6.28;;;1.10;;
35312;SDS011;21425;50.454;30.466;2023-05-31T13:50:21;2.42;;;1.13;;
35312;SDS011;21425;50.454;30.466;2023-05-31T13:52:48;2.92;;;1.10;;
35312;SDS011;21425;50.454;30.466;2023-05-31T13:55:14;1.83;;;1.02;;
35312;SDS011;21425;50.454;30.466;2023-05-31T13:57:40;2.47;;;1.20;;
35312;SDS011;21425;50.454;30.466;2023-05-31T14:00:06;2.72;;;1.10;;
35312;SDS011;21425;50.454;30.466;2023-05-31T14:02:32;2.00;;;1.05;;
35312;SDS011;21425;50.454;30.466;2023-05-31T14:05:00;2.92;;;1.42;;
35312;SDS011;21425;50.454;30.466;2023-05-31T14:07:28;3.03;;;1.45;;
35312;SDS011;21425;50.454;30.466;2023-05-31T14:09:54;1.88;;;0.98;;
35312;SDS011;21425;50.454;30.466;2023-05-31T14:12:20;2.17;;;1.00;;
35312;SDS011;21425;50.454;30.466;2023-05-31T14:14:46;2.47;;;1.02;;
35312;SDS011;21425;50.454;30.466;2023-05-31T14:17:13;4.65;;;1.27;;
35312;SDS011;21425;50.454;30.466;2023-05-31T14:19:39;2.25;;;1.08;;
35312;SDS011;21425;50.454;30.466;2023-05-31T14:22:05;4.03;;;1.20;;
35312;SDS011;21425;50.454;30.466;2023-05-31T14:24:31;2.25;;;1.20;;
35312;SDS011;21425;50.454;30.466;2023-05-31T14:26:58;2.35;;;1.00;;
35312;SDS011;21425;50.454;30.466;2023-05-31T14:29:24;2.45;;;1.02;;
35312;SDS011;21425;50.454;30.466;2023-05-31T14:31:50;1.50;;;0.80;;
35312;SDS011;21425;50.454;30.466;2023-05-31T14:34:16;2.30;;;0.90;;
35312;SDS011;21425;50.454;30.466;2023-05-31T14:36:42;1.70;;;1.10;;
35312;SDS011;21425;50.454;30.466;2023-05-31T14:39:08;9.70;;;1.15;;
35312;SDS011;21425;50.454;30.466;2023-05-31T14:41:34;2.75;;;0.98;;
35312;SDS011;21425;50.454;30.466;2023-05-31T14:44:01;2.20;;;1.02;;
35312;SDS011;21425;50.454;30.466;2023-05-31T14:46:27;2.53;;;0.95;;
35312;SDS011;21425;50.454;30.466;2023-05-31T14:48:53;3.10;;;1.00;;
35312;SDS011;21425;50.454;30.466;2023-05-31T14:51:20;2.35;;;1.05;;
35312;SDS011;21425;50.454;30.466;2023-05-31T14:53:46;4.18;;;1.20;;
35312;SDS011;21425;50.454;30.466;2023-05-31T14:56:12;10.90;;;1.30;;
35312;SDS011;21425;50.454;30.466;2023-05-31T14:58:38;1.77;;;1.00;;